Time;durP1;ratioP1;P1;durP2;ratioP2;P2;SDS_P1;SDS_P2;PMS_P1;PMS_P2;Temp;Humidity;BMP_temperature;BMP_pressure;BME280_temperature;BME280_humidity;BME280_pressure;Samples;Min_cycle;Max_cycle;Signal;HPM_P1;HPM_P2
2021/04/19 00:00:43;;;;;;;5.22;3.83;;;;;;;8.40;72.67;100787.03;5033016;28;20406;-68
2021/04/19 00:03:10;;;;;;;8.10;5.55;;;;;;;8.43;72.17;100788.56;5033174;28;20103;-67
2021/04/19 00:05:35;;;;;;;6.13;4.63;;;;;;;8.39;72.68;100779.22;5033143;28;20281;-68
2021/04/19 00:08:01;;;;;;;4.78;2.95;;;;;;;8.38;72.59;100786.28;5032172;28;20299;-70
2021/04/19 00:10:26;;;;;;;13.13;8.27;;;;;;;8.41;72.72;100780.78;5032619;28;20113;-68
2021/04/19 00:12:52;;;;;;;8.10;5.35;;;;;;;8.37;73.08;100783.81;5032022;28;20037;-68
2021/04/19 00:15:20;;;;;;;8.13;5.75;;;;;;;8.27;73.76;100779.31;5032559;28;20197;-68
2021/04/19 00:17:46;;;;;;;7.63;5.57;;;;;;;8.17;76.51;100778.41;5032603;28;20046;-68
2021/04/19 00:20:12;;;;;;;9.52;6.35;;;;;;;8.08;76.93;100784.47;5031897;28;20394;-68
2021/04/19 00:22:38;;;;;;;6.88;4.78;;;;;;;8.03;76.34;100784.00;5031987;28;20053;-68
2021/04/19 00:25:04;;;;;;;4.70;3.53;;;;;;;8.01;75.94;100778.06;5031942;28;20449;-68
2021/04/19 00:27:30;;;;;;;5.50;3.95;;;;;;;7.98;77.67;100783.56;5032250;28;20615;-68
2021/04/19 00:29:55;;;;;;;8.43;6.18;;;;;;;7.93;79.50;100780.47;5031766;28;20041;-68
2021/04/19 00:32:20;;;;;;;6.90;4.93;;;;;;;7.88;78.44;100776.44;5028834;28;20055;-68
2021/04/19 00:34:46;;;;;;;6.68;4.93;;;;;;;7.86;78.64;100774.88;5012097;28;20049;-67
2021/04/19 00:37:11;;;;;;;6.80;5.40;;;;;;;7.82;80.01;100776.94;5012100;28;20041;-68
2021/04/19 00:39:36;;;;;;;9.30;6.70;;;;;;;7.78;78.52;100777.34;5011983;28;20056;-68
2021/04/19 00:42:02;;;;;;;7.25;4.90;;;;;;;7.80;76.43;100778.88;5011969;28;20121;-67
2021/04/19 00:44:28;;;;;;;7.25;5.30;;;;;;;7.78;78.62;100779.97;5011420;28;20092;-67
2021/04/19 00:46:54;;;;;;;6.18;4.75;;;;;;;7.78;77.86;100777.34;5016855;28;20049;-68
2021/04/19 00:49:19;;;;;;;4.93;3.42;;;;;;;7.80;76.86;100776.25;5031264;28;20273;-67
2021/04/19 00:51:45;;;;;;;5.43;4.07;;;;;;;7.80;76.79;100768.34;5031353;28;20085;-68
2021/04/19 00:54:12;;;;;;;7.63;5.32;;;;;;;7.83;75.77;100765.44;5031003;28;20092;-69
2021/04/19 00:56:38;;;;;;;9.23;6.85;;;;;;;7.86;77.60;100770.47;5031718;28;20033;-68
2021/04/19 00:59:04;;;;;;;6.25;4.40;;;;;;;7.87;78.86;100763.41;5031623;28;20409;-68
2021/04/19 01:01:32;;;;;;;8.27;5.50;;;;;;;7.84;79.52;100766.28;5031561;28;20039;-68
2021/04/19 01:03:58;;;;;;;9.48;6.40;;;;;;;7.81;77.94;100770.00;5031107;28;20437;-68
2021/04/19 01:06:23;;;;;;;9.60;7.13;;;;;;;7.81;76.83;100767.38;5031379;28;20041;-68
2021/04/19 01:08:49;;;;;;;6.72;5.20;;;;;;;7.85;76.79;100766.16;5031492;28;20385;-68
2021/04/19 01:11:14;;;;;;;5.20;3.88;;;;;;;7.87;77.52;100763.41;5031185;28;20044;-67
2021/04/19 01:13:40;;;;;;;6.63;4.85;;;;;;;7.85;79.12;100762.69;5031042;28;20044;-68
2021/04/19 01:16:05;;;;;;;6.18;4.47;;;;;;;7.83;78.76;100767.25;5030786;28;20053;-68
2021/04/19 01:18:31;;;;;;;5.15;3.78;;;;;;;7.85;78.26;100765.34;5031184;28;20037;-68
2021/04/19 01:20:57;;;;;;;7.72;5.38;;;;;;;7.91;76.96;100766.59;5030764;28;20128;-68
2021/04/19 01:23:22;;;;;;;8.90;5.30;;;;;;;7.88;78.04;100762.44;5031042;28;20412;-68
2021/04/19 01:25:48;;;;;;;5.75;4.32;;;;;;;7.87;79.62;100761.59;5030726;28;20038;-68
2021/04/19 01:28:17;;;;;;;5.75;3.85;;;;;;;7.87;78.50;100756.34;5030257;28;20037;-68
2021/04/19 01:30:45;;;;;;;7.00;4.97;;;;;;;7.88;79.99;100762.44;5012902;28;20030;-67
2021/04/19 01:33:11;;;;;;;7.43;5.30;;;;;;;7.88;82.30;100760.63;5003617;28;20033;-68
2021/04/19 01:35:37;;;;;;;8.05;5.75;;;;;;;7.85;80.61;100762.69;5011154;28;20053;-68
2021/04/19 01:38:05;;;;;;;9.27;7.03;;;;;;;7.83;80.17;100762.00;5010798;28;20045;-68
2021/04/19 01:40:30;;;;;;;7.00;5.03;;;;;;;7.84;81.81;100766.28;5010606;28;20048;-68
2021/04/19 01:42:56;;;;;;;10.40;7.85;;;;;;;7.80;83.17;100762.25;5010852;28;20030;-68
2021/04/19 01:45:23;;;;;;;8.73;6.45;;;;;;;7.79;82.76;100763.19;4993888;28;20030;-68
2021/04/19 01:47:49;;;;;;;8.77;6.53;;;;;;;7.77;81.12;100762.47;5023717;28;20033;-68
2021/04/19 01:50:20;;;;;;;7.68;5.63;;;;;;;7.79;79.60;100765.84;5028970;28;20061;-69
2021/04/19 01:52:46;;;;;;;5.95;4.47;;;;;;;7.83;78.81;100762.81;5030150;28;20110;-68
2021/04/19 01:55:16;;;;;;;20.58;14.32;;;;;;;7.97;78.71;100766.09;5029776;28;20462;-68
2021/04/19 01:57:44;;;;;;;19.23;13.03;;;;;;;7.86;80.27;100757.31;5030345;28;20398;-68
2021/04/19 02:00:11;;;;;;;10.63;7.00;;;;;;;7.83;80.69;100757.56;5029571;28;20281;-68
2021/04/19 02:03:07;;;;;;;8.00;5.75;;;;;;;7.83;80.73;100760.19;5030019;28;20544;-68
2021/04/19 02:05:46;;;;;;;8.40;5.97;;;;;;;7.81;80.63;100756.84;5030154;28;20038;-68
2021/04/19 02:08:27;;;;;;;6.15;4.50;;;;;;;7.84;81.24;100753.13;5029565;28;20464;-69
2021/04/19 02:11:07;;;;;;;6.23;4.53;;;;;;;7.85;80.63;100753.00;5030052;28;20520;-68
2021/04/19 02:13:40;;;;;;;4.07;2.97;;;;;;;7.88;80.39;100757.16;5029861;28;20033;-68
2021/04/19 02:16:20;;;;;;;3.00;2.30;;;;;;;7.87;80.92;100751.06;5019654;28;20041;-69
2021/04/19 02:18:58;;;;;;;10.07;7.47;;;;;;;7.82;83.47;100750.63;5010173;28;20091;-68
2021/04/19 02:21:35;;;;;;;15.75;10.93;;;;;;;7.74;84.15;100755.69;5010741;28;20391;-68
2021/04/19 02:24:06;;;;;;;12.52;9.15;;;;;;;7.72;83.53;100752.34;5009887;28;20539;-71
2021/04/19 02:26:35;;;;;;;9.50;7.10;;;;;;;7.73;81.77;100753.19;5010263;28;20033;-69
2021/04/19 02:29:02;;;;;;;6.88;4.97;;;;;;;7.75;81.06;100752.09;5009989;28;20530;-69
2021/04/19 02:31:33;;;;;;;7.03;4.93;;;;;;;7.80;80.33;100749.91;4991913;28;20136;-69
2021/04/19 02:34:00;;;;;;;17.30;11.23;;;;;;;7.85;81.69;100750.38;5025456;28;20037;-68
2021/04/19 02:36:28;;;;;;;13.25;9.65;;;;;;;7.87;81.07;100751.06;5011389;28;20056;-69
2021/04/19 02:38:55;;;;;;;14.85;10.40;;;;;;;7.86;82.99;100746.78;5011941;28;20046;-69
2021/04/19 02:41:23;;;;;;;15.48;9.95;;;;;;;7.87;82.85;100745.81;5028792;28;20037;-69
2021/04/19 02:43:49;;;;;;;22.20;13.25;;;;;;;7.90;83.79;100741.25;5011387;28;20037;-69
2021/04/19 02:46:16;;;;;;;21.70;16.08;;;;;;;7.87;82.91;100745.81;5029230;28;20033;-69
2021/04/19 02:48:43;;;;;;;22.27;13.73;;;;;;;7.85;81.82;100745.09;4989987;28;20047;-69
2021/04/19 02:51:09;;;;;;;10.95;7.72;;;;;;;7.85;83.51;100752.16;4972235;28;20050;-69
2021/04/19 02:53:36;;;;;;;15.50;11.15;;;;;;;7.82;85.38;100755.06;4988689;28;20077;-69
2021/04/19 02:56:05;;;;;;;15.63;11.10;;;;;;;7.79;85.73;100747.41;4989658;28;20043;-71
2021/04/19 02:58:55;;;;;;;11.93;8.98;;;;;;;7.77;85.67;100746.69;4990041;28;20531;-70
2021/04/19 03:01:30;;;;;;;10.02;7.13;;;;;;;7.77;85.52;100752.81;4990008;28;20142;-69
2021/04/19 03:03:58;;;;;;;11.85;8.57;;;;;;;7.76;85.57;100747.66;4972726;28;20034;-69
2021/04/19 03:06:26;;;;;;;11.77;7.43;;;;;;;7.78;85.04;100751.00;4989758;28;20046;-70
2021/04/19 03:08:57;;;;;;;11.68;8.70;;;;;;;7.77;86.17;100741.44;4993510;28;20092;-70
2021/04/19 03:11:30;;;;;;;17.67;12.93;;;;;;;7.82;82.35;100750.63;4994026;28;20054;-69
2021/04/19 03:13:57;;;;;;;18.55;12.93;;;;;;;7.73;86.85;100750.56;4993931;28;20380;-70
2021/04/19 03:16:26;;;;;;;22.58;15.18;;;;;;;7.68;85.87;100750.94;5016507;28;20418;-69
2021/04/19 03:18:53;;;;;;;16.23;10.85;;;;;;;7.69;86.27;100747.34;5033255;28;20029;-70
2021/04/19 03:21:23;;;;;;;9.70;7.13;;;;;;;7.72;85.63;100747.06;5033007;28;20068;-69
2021/04/19 03:23:53;;;;;;;11.87;9.20;;;;;;;7.73;85.46;100747.94;5033334;28;20425;-69
2021/04/19 03:26:21;;;;;;;11.90;8.25;;;;;;;7.70;85.08;100749.03;5033219;28;20277;-70
2021/04/19 03:28:49;;;;;;;11.43;8.25;;;;;;;7.74;83.22;100745.16;5033183;28;20069;-69
2021/04/19 03:31:29;;;;;;;8.68;6.25;;;;;;;7.75;84.68;100749.47;5033149;28;20034;-70
2021/04/19 03:33:57;;;;;;;14.25;10.23;;;;;;;7.72;86.28;100747.06;5018198;28;20502;-70
2021/04/19 03:36:25;;;;;;;18.98;12.80;;;;;;;7.68;84.91;100750.94;5012885;28;20034;-70
2021/04/19 03:38:50;;;;;;;17.95;13.73;;;;;;;7.63;85.37;100747.88;4995541;28;20028;-70
2021/04/19 03:41:17;;;;;;;14.73;9.93;;;;;;;7.68;83.86;100743.06;5012813;28;20049;-70
2021/04/19 03:43:50;;;;;;;9.05;6.78;;;;;;;7.75;83.58;100744.22;5013963;28;20391;-70
2021/04/19 03:46:17;;;;;;;6.53;4.82;;;;;;;7.77;83.79;100739.66;5012266;28;20133;-71
2021/04/19 03:48:45;;;;;;;10.48;7.50;;;;;;;7.74;85.72;100750.41;4975724;28;20058;-69
2021/04/19 03:51:16;;;;;;;10.93;8.30;;;;;;;7.72;83.51;100744.44;4993262;28;20084;-70
2021/04/19 03:53:42;;;;;;;16.58;12.00;;;;;;;7.59;86.53;100747.28;4975760;28;20038;-70
2021/04/19 03:56:11;;;;;;;20.90;14.68;;;;;;;7.51;87.56;100740.97;4975181;28;20034;-70
2021/04/19 03:58:37;;;;;;;17.67;12.80;;;;;;;7.55;86.05;100737.13;4975577;28;20066;-70
2021/04/19 04:01:06;;;;;;;16.90;12.48;;;;;;;7.54;86.14;100738.09;4975242;28;20062;-70
2021/04/19 04:03:33;;;;;;;27.40;19.30;;;;;;;7.47;85.98;100744.81;4992932;28;20173;-70
2021/04/19 04:05:59;;;;;;;21.30;16.30;;;;;;;7.38;87.05;100735.88;4975225;28;20565;-70
2021/04/19 04:08:25;;;;;;;19.20;14.15;;;;;;;7.43;84.99;100742.44;4992494;28;20042;-70
2021/04/19 04:10:52;;;;;;;12.10;8.77;;;;;;;7.42;86.26;100738.13;4993304;28;20092;-70
2021/04/19 04:13:19;;;;;;;15.77;10.90;;;;;;;7.48;84.50;100741.22;4992523;28;20030;-70
2021/04/19 04:15:57;;;;;;;9.05;6.70;;;;;;;7.47;84.50;100739.56;5005291;28;20112;-70
2021/04/19 04:18:22;;;;;;;7.78;5.60;;;;;;;7.49;84.67;100740.28;5030816;28;20064;-70
2021/04/19 04:20:48;;;;;;;16.20;11.25;;;;;;;7.53;83.99;100750.44;5014656;28;20061;-70
2021/04/19 04:23:14;;;;;;;14.20;10.10;;;;;;;7.53;83.75;100750.44;5032001;28;20481;-70
2021/04/19 04:25:40;;;;;;;10.02;7.50;;;;;;;7.56;84.67;100751.97;5032389;28;20065;-70
2021/04/19 04:28:06;;;;;;;18.48;12.38;;;;;;;7.63;84.01;100745.22;5030360;28;20061;-70
2021/04/19 04:30:34;;;;;;;14.23;10.50;;;;;;;7.58;85.83;100752.66;5014555;28;20510;-70
2021/04/19 04:33:03;;;;;;;10.25;7.20;;;;;;;7.59;84.71;100751.69;5006079;28;20030;-70
2021/04/19 04:35:29;;;;;;;9.20;6.40;;;;;;;7.62;84.72;100748.81;4994499;28;20052;-70
2021/04/19 04:37:55;;;;;;;12.25;9.45;;;;;;;7.61;86.42;100744.53;5011940;28;20034;-70
2021/04/19 04:40:20;;;;;;;11.00;7.97;;;;;;;7.59;85.49;100736.75;5011744;28;20552;-70
2021/04/19 04:42:50;;;;;;;9.05;6.38;;;;;;;7.63;84.63;100743.44;5011993;28;20033;-70
2021/04/19 04:45:15;;;;;;;10.45;8.02;;;;;;;7.70;83.72;100741.13;5022775;28;20033;-70
2021/04/19 04:47:56;;;;;;;20.17;12.25;;;;;;;7.73;84.69;100738.22;5021314;28;20419;-70
2021/04/19 04:50:30;;;;;;;22.95;15.32;;;;;;;7.77;83.80;100741.44;4998540;28;20041;-70
2021/04/19 04:53:07;;;;;;;31.83;20.05;;;;;;;7.78;84.33;100736.03;5023556;28;20124;-70
2021/04/19 04:55:33;;;;;;;29.10;20.65;;;;;;;7.73;84.62;100740.88;5032079;28;20053;-70
2021/04/19 04:58:01;;;;;;;25.50;16.90;;;;;;;7.65;84.93;100732.75;5011959;28;20038;-70
2021/04/19 05:00:28;;;;;;;21.80;15.95;;;;;;;7.65;86.81;100735.38;5014595;28;20075;-70
2021/04/19 05:02:55;;;;;;;24.30;17.35;;;;;;;7.64;86.76;100733.72;5025370;28;20435;-70
2021/04/19 05:05:21;;;;;;;27.48;19.20;;;;;;;7.69;84.55;100739.44;5034333;28;20041;-70
2021/04/19 05:07:47;;;;;;;30.33;19.67;;;;;;;7.73;84.53;100740.88;5033609;28;20046;-71
2021/04/19 05:10:13;;;;;;;21.02;14.27;;;;;;;7.76;84.26;100739.78;5023439;28;20053;-70
2021/04/19 05:12:40;;;;;;;19.50;13.20;;;;;;;7.76;86.79;100737.97;5013511;28;20025;-69
2021/04/19 05:15:15;;;;;;;25.30;18.77;;;;;;;7.68;88.05;100742.22;5022973;28;20378;-71
2021/04/19 05:17:44;;;;;;;25.15;17.85;;;;;;;7.61;88.50;100747.16;5031333;28;20445;-69
2021/04/19 05:20:12;;;;;;;22.42;17.38;;;;;;;7.58;88.98;100750.00;5030399;28;20110;-69
2021/04/19 05:22:38;;;;;;;24.30;17.92;;;;;;;7.59;88.77;100742.00;5022539;28;20245;-69
2021/04/19 05:25:05;;;;;;;31.75;21.90;;;;;;;7.53;88.93;100745.16;5030591;28;20065;-69
2021/04/19 05:27:31;;;;;;;21.67;16.13;;;;;;;7.59;87.60;100747.28;5030570;28;20091;-69
2021/04/19 05:29:57;;;;;;;24.10;16.35;;;;;;;7.59;88.73;100747.28;5011911;28;20121;-69
2021/04/19 05:32:23;;;;;;;13.90;10.05;;;;;;;7.65;88.07;100754.66;5022732;28;20117;-69
2021/04/19 05:34:51;;;;;;;16.05;11.93;;;;;;;7.70;88.48;100749.03;5022164;28;20041;-69
2021/04/19 05:37:17;;;;;;;11.32;8.65;;;;;;;7.76;87.37;100753.75;5030540;28;20489;-69
2021/04/19 05:39:44;;;;;;;13.10;9.20;;;;;;;7.86;87.18;100753.81;5030199;28;20398;-69
2021/04/19 05:42:11;;;;;;;19.48;13.52;;;;;;;7.88;87.06;100755.34;5021476;28;20069;-70
2021/04/19 05:44:36;;;;;;;28.42;19.38;;;;;;;7.97;85.40;100755.56;5030579;28;20029;-69
2021/04/19 05:47:02;;;;;;;17.45;12.90;;;;;;;7.93;85.37;100765.50;5028777;28;20135;-69
2021/04/19 05:49:28;;;;;;;11.95;8.95;;;;;;;7.98;85.47;100762.50;5018590;28;20108;-69
2021/04/19 05:51:58;;;;;;;21.38;15.02;;;;;;;8.08;84.96;100763.41;5018837;28;20394;-69
2021/04/19 05:54:24;;;;;;;22.63;14.80;;;;;;;8.13;84.78;100769.13;5029484;28;20079;-69
2021/04/19 05:57:19;;;;;;;18.30;13.73;;;;;;;8.07;85.77;100764.34;5030126;28;20289;-69
2021/04/19 05:59:59;;;;;;;16.73;12.23;;;;;;;7.99;87.09;100774.72;4998904;28;20029;-69
2021/04/19 06:02:34;;;;;;;28.95;19.48;;;;;;;7.91;87.34;100772.69;5008811;28;20065;-69
2021/04/19 06:05:05;;;;;;;28.67;19.95;;;;;;;7.91;86.99;100782.41;5027850;28;20037;-69
2021/04/19 06:07:59;;;;;;;28.77;19.90;;;;;;;7.90;87.32;100783.38;5030595;28;20072;-72
2021/04/19 06:10:29;;;;;;;21.90;15.48;;;;;;;7.98;85.68;100773.03;5012060;28;20056;-69
2021/04/19 06:12:55;;;;;;;15.05;10.93;;;;;;;8.05;85.80;100775.00;5012138;28;20452;-69
2021/04/19 06:15:23;;;;;;;15.20;11.95;;;;;;;8.11;85.50;100778.94;5029789;28;20033;-69
2021/04/19 06:17:50;;;;;;;15.65;11.75;;;;;;;8.17;84.81;100781.03;5021783;28;20041;-70
2021/04/19 06:20:19;;;;;;;21.00;15.18;;;;;;;8.24;84.43;100776.91;5011186;28;20117;-69
2021/04/19 06:22:48;;;;;;;22.13;15.02;;;;;;;8.30;84.02;100776.41;5029438;28;20033;-69
2021/04/19 06:25:15;;;;;;;13.43;9.95;;;;;;;8.39;83.82;100776.56;5011712;28;20027;-69
2021/04/19 06:27:41;;;;;;;8.27;6.18;;;;;;;8.44;83.77;100779.72;5029487;28;20051;-69
2021/04/19 06:30:20;;;;;;;10.10;7.20;;;;;;;8.47;83.89;100774.16;5003633;28;20049;-70
2021/04/19 06:32:48;;;;;;;9.40;7.38;;;;;;;8.52;84.08;100779.88;5029334;28;20128;-69
2021/04/19 06:35:16;;;;;;;14.45;10.90;;;;;;;8.57;84.06;100775.03;5012418;28;20470;-69
2021/04/19 06:37:41;;;;;;;18.23;12.50;;;;;;;8.69;82.95;100775.78;5009174;28;20493;-69
2021/04/19 06:40:07;;;;;;;14.93;9.45;;;;;;;8.82;82.19;100775.53;5028721;28;20068;-70
2021/04/19 06:42:34;;;;;;;10.82;7.40;;;;;;;8.93;82.64;100773.63;5020581;28;20034;-72
2021/04/19 06:45:04;;;;;;;16.08;11.57;;;;;;;9.06;81.50;100770.75;5011488;28;20037;-71
2021/04/19 06:47:31;;;;;;;12.88;9.70;;;;;;;9.16;80.88;100768.13;5024599;28;20426;-71
2021/04/19 06:49:58;;;;;;;10.02;7.50;;;;;;;9.29;81.24;100781.88;5012059;28;20116;-71
2021/04/19 06:52:23;;;;;;;23.85;15.93;;;;;;;9.38;79.66;100774.94;5001509;28;20138;-72
2021/04/19 06:54:49;;;;;;;17.90;12.52;;;;;;;9.36;79.92;100779.53;5006207;28;20594;-72
2021/04/19 06:57:15;;;;;;;15.55;9.75;;;;;;;9.41;80.54;100777.31;5020888;28;20048;-70
2021/04/19 06:59:44;;;;;;;14.85;11.13;;;;;;;9.41;82.49;100785.22;5028785;28;20086;-71
2021/04/19 07:02:20;;;;;;;16.92;12.52;;;;;;;9.47;81.04;100782.03;5011347;28;20152;-72
2021/04/19 07:04:50;;;;;;;23.58;16.30;;;;;;;9.65;80.26;100786.63;5029409;28;20036;-69
2021/04/19 07:07:22;;;;;;;18.80;13.30;;;;;;;9.65;81.96;100781.34;5029200;28;20037;-71
2021/04/19 07:09:51;;;;;;;23.48;15.85;;;;;;;9.63;81.88;100783.28;5008086;28;20068;-71
2021/04/19 07:12:19;;;;;;;21.65;14.68;;;;;;;9.69;80.01;100785.38;5020100;28;20033;-71
2021/04/19 07:14:52;;;;;;;12.82;9.57;;;;;;;9.72;80.17;100787.72;5029797;28;20499;-71
2021/04/19 07:17:18;;;;;;;14.95;10.23;;;;;;;9.74;81.37;100796.34;5019170;28;20056;-72
2021/04/19 07:19:44;;;;;;;31.00;20.75;;;;;;;9.58;81.29;100794.25;5022278;28;20045;-72
2021/04/19 07:22:11;;;;;;;31.23;20.20;;;;;;;9.53;80.36;100788.56;5027480;28;20038;-72
2021/04/19 07:24:37;;;;;;;19.38;14.20;;;;;;;9.51;81.02;100782.59;5029065;28;20180;-71
2021/04/19 07:27:03;;;;;;;21.65;15.90;;;;;;;9.55;82.73;100782.16;5015939;28;20076;-74
2021/04/19 07:29:29;;;;;;;22.25;15.93;;;;;;;9.76;80.66;100778.56;5027017;28;20033;-74
2021/04/19 07:31:56;;;;;;;21.83;14.93;;;;;;;9.88;81.09;100781.88;5000123;28;20338;-74
2021/04/19 07:34:27;;;;;;;23.05;15.95;;;;;;;9.97;81.05;100773.13;5012231;28;20522;-73
2021/04/19 07:37:00;;;;;;;21.23;15.50;;;;;;;10.03;80.33;100777.00;5004983;28;20042;-73
2021/04/19 07:39:27;;;;;;;20.05;15.23;;;;;;;10.07;80.75;100775.75;5032374;28;20044;-73
2021/04/19 07:41:59;;;;;;;24.85;17.38;;;;;;;10.03;82.75;100774.34;5010393;28;20046;-73
2021/04/19 07:44:49;;;;;;;27.50;19.67;;;;;;;10.35;79.22;100766.94;5012864;28;20037;-73
2021/04/19 07:47:32;;;;;;;25.30;17.17;;;;;;;10.52;78.50;100770.63;5025441;28;20040;-73
2021/04/19 07:50:21;;;;;;;21.60;15.13;;;;;;;10.66;77.44;100774.59;5020553;28;20446;-74
2021/04/19 07:53:08;;;;;;;19.85;13.63;;;;;;;10.74;80.87;100772.06;5008847;28;20407;-73
2021/04/19 07:55:44;;;;;;;17.85;13.45;;;;;;;10.83;79.06;100765.88;5023849;28;20579;-73
2021/04/19 07:58:21;;;;;;;27.92;18.90;;;;;;;11.07;76.89;100766.31;5010011;28;20494;-73
2021/04/19 08:00:48;;;;;;;23.45;16.98;;;;;;;11.06;75.96;100754.91;5028244;28;20037;-73
2021/04/19 08:03:20;;;;;;;23.35;16.35;;;;;;;11.24;75.50;100761.03;5033670;28;20033;-73
2021/04/19 08:05:48;;;;;;;16.05;12.70;;;;;;;11.21;78.19;100765.81;5035548;28;20426;-72
2021/04/19 08:08:16;;;;;;;15.95;12.70;;;;;;;11.29;79.38;100770.34;5025364;28;20672;-71
2021/04/19 08:10:45;;;;;;;15.70;12.73;;;;;;;11.18;78.83;100768.75;5025806;28;20109;-71
2021/04/19 08:13:19;;;;;;;17.02;13.48;;;;;;;11.27;76.26;100773.97;5032037;28;20045;-71
2021/04/19 08:15:46;;;;;;;13.55;10.10;;;;;;;11.35;74.95;100767.94;5024809;28;20050;-72
2021/04/19 08:18:13;;;;;;;12.15;9.30;;;;;;;11.38;76.35;100761.50;5024622;28;20064;-71
2021/04/19 08:20:50;;;;;;;12.85;10.02;;;;;;;11.43;75.35;100759.22;5030195;28;20372;-71
2021/04/19 08:23:17;;;;;;;12.75;9.88;;;;;;;11.37;75.44;100773.91;5026444;28;20037;-71
2021/04/19 08:25:48;;;;;;;14.05;10.68;;;;;;;11.21;74.86;100769.28;5037427;28;20041;-71
2021/04/19 08:28:19;;;;;;;14.57;10.68;;;;;;;11.11;75.70;100767.66;5024629;28;20117;-71
2021/04/19 08:30:50;;;;;;;15.17;11.03;;;;;;;11.17;74.45;100765.25;5023166;28;20417;-71
2021/04/19 08:33:16;;;;;;;11.52;8.88;;;;;;;10.91;75.10;100770.44;5027886;28;20128;-71
2021/04/19 08:35:43;;;;;;;13.60;10.73;;;;;;;10.78;76.19;100770.78;5002276;28;20510;-72
2021/04/19 08:38:09;;;;;;;13.85;10.13;;;;;;;10.81;75.61;100777.59;5016780;28;20026;-71
2021/04/19 08:40:37;;;;;;;15.32;11.95;;;;;;;10.82;75.39;100776.59;5023438;28;20116;-71
2021/04/19 08:43:06;;;;;;;10.93;7.82;;;;;;;10.68;76.30;100767.38;5022528;28;20311;-72
2021/04/19 08:45:32;;;;;;;13.15;10.13;;;;;;;10.73;75.62;100777.50;5015277;28;20388;-72
2021/04/19 08:47:58;;;;;;;11.77;8.88;;;;;;;10.56;75.44;100774.66;5032669;28;20084;-72
2021/04/19 08:50:26;;;;;;;11.05;8.57;;;;;;;10.60;76.72;100783.94;5026411;28;20524;-72
2021/04/19 08:52:53;;;;;;;13.70;10.68;;;;;;;10.38;76.49;100782.50;5022615;28;20512;-72
2021/04/19 08:55:19;;;;;;;12.90;9.82;;;;;;;10.28;75.94;100776.41;5019950;28;20034;-72
2021/04/19 08:57:45;;;;;;;9.63;7.30;;;;;;;10.49;75.64;100780.69;5031568;28;20034;-71
2021/04/19 09:00:16;;;;;;;11.13;9.02;;;;;;;10.63;74.98;100777.56;5014721;28;20466;-72
2021/04/19 09:02:42;;;;;;;11.27;8.52;;;;;;;10.40;75.52;100782.38;5021482;28;20048;-72
2021/04/19 09:05:16;;;;;;;10.30;7.55;;;;;;;10.34;77.01;100789.03;5014870;28;20109;-72
2021/04/19 09:07:43;;;;;;;12.32;9.55;;;;;;;10.22;77.23;100779.59;5029908;28;20030;-71
2021/04/19 09:10:13;;;;;;;11.88;9.00;;;;;;;10.33;76.89;100782.09;5030249;28;20040;-72
2021/04/19 09:12:40;;;;;;;13.35;10.27;;;;;;;10.46;75.42;100786.22;5030667;28;20028;-71
2021/04/19 09:15:16;;;;;;;13.20;9.95;;;;;;;10.49;74.77;100786.78;5032529;28;20092;-71
2021/04/19 09:17:42;;;;;;;10.10;7.60;;;;;;;10.57;74.88;100788.69;5029163;28;20117;-71
2021/04/19 09:20:11;;;;;;;9.85;8.13;;;;;;;10.68;75.21;100785.88;5030006;28;20056;-71
2021/04/19 09:22:37;;;;;;;9.88;7.35;;;;;;;10.88;74.82;100788.41;5021507;28;20053;-71
2021/04/19 09:25:14;;;;;;;8.90;6.82;;;;;;;11.07;75.72;100785.66;5013747;28;20041;-71
2021/04/19 09:27:57;;;;;;;11.02;7.63;;;;;;;11.31;72.77;100784.25;5021901;28;20042;-71
2021/04/19 09:30:26;;;;;;;9.07;7.30;;;;;;;11.44;73.35;100776.75;5024142;28;20042;-71
2021/04/19 09:33:07;;;;;;;11.30;8.60;;;;;;;11.60;73.55;100782.22;5018902;28;20038;-72
2021/04/19 09:35:41;;;;;;;9.60;8.13;;;;;;;11.76;71.32;100786.81;5012044;28;20126;-71
2021/04/19 09:38:09;;;;;;;10.27;7.93;;;;;;;11.86;71.50;100784.09;5006027;28;20034;-71
2021/04/19 09:40:55;;;;;;;12.00;8.27;;;;;;;11.78;70.37;100786.69;5025359;28;20045;-71
2021/04/19 09:43:40;;;;;;;9.48;7.90;;;;;;;11.82;72.54;100788.00;5006750;28;20331;-71
2021/04/19 09:46:18;;;;;;;9.05;6.97;;;;;;;11.78;71.33;100782.22;5026718;28;20041;-71
2021/04/19 09:48:53;;;;;;;8.15;6.43;;;;;;;11.71;69.66;100786.47;5016472;28;20057;-72
2021/04/19 09:51:22;;;;;;;9.13;6.95;;;;;;;11.63;71.84;100783.72;5015314;28;20083;-71
2021/04/19 09:54:08;;;;;;;8.93;6.90;;;;;;;11.57;73.50;100777.22;5030327;28;20056;-71
2021/04/19 09:56:41;;;;;;;10.57;8.20;;;;;;;11.56;72.38;100778.22;4990346;28;20116;-71
2021/04/19 09:59:10;;;;;;;11.85;8.00;;;;;;;11.90;71.52;100780.19;5031906;28;20025;-72
2021/04/19 10:01:37;;;;;;;10.73;8.48;;;;;;;11.86;71.93;100779.59;5014911;28;20342;-73
2021/04/19 10:04:04;;;;;;;14.43;9.02;;;;;;;11.96;70.96;100781.38;4997128;28;20119;-72
2021/04/19 10:06:52;;;;;;;10.80;8.45;;;;;;;11.87;69.88;100785.81;5026610;28;20414;-72
2021/04/19 10:09:29;;;;;;;9.98;7.45;;;;;;;11.86;69.26;100773.50;5031582;28;20103;-70
2021/04/19 10:12:06;;;;;;;9.65;7.45;;;;;;;11.91;69.95;100779.19;5021513;28;20558;-71
2021/04/19 10:14:36;;;;;;;11.07;8.73;;;;;;;11.69;70.22;100767.22;5023760;28;20132;-73
2021/04/19 10:17:13;;;;;;;10.02;8.10;;;;;;;11.78;69.83;100771.63;5021490;28;20042;-71
2021/04/19 10:19:38;;;;;;;6.90;5.57;;;;;;;11.89;72.05;100770.56;5022240;28;20498;-73
2021/04/19 10:22:06;;;;;;;10.43;7.82;;;;;;;12.06;69.69;100771.50;5031831;28;20064;-73
2021/04/19 10:24:32;;;;;;;9.57;7.60;;;;;;;12.15;68.78;100777.69;5012494;28;20029;-70
2021/04/19 10:26:58;;;;;;;10.85;8.35;;;;;;;12.05;69.08;100772.50;5024846;28;20048;-71
2021/04/19 10:29:27;;;;;;;10.30;7.82;;;;;;;12.00;69.45;100765.00;5008304;28;20029;-71
2021/04/19 10:32:02;;;;;;;10.60;8.45;;;;;;;12.22;68.77;100762.81;5029971;28;20052;-70
2021/04/19 10:34:32;;;;;;;12.10;7.90;;;;;;;12.18;70.19;100770.28;5016276;28;20034;-71
2021/04/19 10:37:00;;;;;;;10.45;7.50;;;;;;;12.34;68.75;100764.22;5006800;28;20037;-71
2021/04/19 10:39:28;;;;;;;9.75;7.78;;;;;;;12.47;67.74;100769.09;5002311;28;20034;-71
2021/04/19 10:41:58;;;;;;;10.73;8.52;;;;;;;12.44;68.56;100764.97;5021375;28;20080;-71
2021/04/19 10:44:40;;;;;;;11.73;8.30;;;;;;;12.65;67.08;100766.34;4996093;28;21827;-70
2021/04/19 10:47:08;;;;;;;10.98;8.25;;;;;;;12.78;67.29;100763.28;5017611;28;20034;-70
2021/04/19 10:49:34;;;;;;;10.95;9.00;;;;;;;13.04;64.85;100755.19;5012388;28;20026;-70
2021/04/19 10:52:02;;;;;;;9.27;7.72;;;;;;;12.92;66.10;100760.84;5015520;28;20490;-70
2021/04/19 10:54:36;;;;;;;9.00;7.18;;;;;;;12.90;66.75;100760.16;5014669;28;21371;-70
2021/04/19 10:57:03;;;;;;;10.55;8.60;;;;;;;13.22;64.39;100761.22;5021932;28;20072;-70
2021/04/19 10:59:29;;;;;;;9.88;8.00;;;;;;;13.25;62.85;100757.41;5019258;28;20083;-70
2021/04/19 11:01:57;;;;;;;9.00;6.70;;;;;;;13.40;63.96;100762.97;5016021;28;20034;-70
2021/04/19 11:04:23;;;;;;;6.25;5.25;;;;;;;13.53;63.41;100755.31;5014885;28;20044;-70
2021/04/19 11:06:48;;;;;;;7.97;5.55;;;;;;;13.56;61.76;100753.19;5015591;28;20089;-71
2021/04/19 11:09:18;;;;;;;7.85;5.82;;;;;;;13.57;62.91;100754.00;5017739;28;20038;-71
2021/04/19 11:11:51;;;;;;;7.55;6.05;;;;;;;13.53;62.03;100752.66;5013446;28;20061;-71
2021/04/19 11:14:36;;;;;;;6.57;5.13;;;;;;;13.56;63.77;100750.53;5020614;28;20036;-71
2021/04/19 11:17:02;;;;;;;8.27;6.72;;;;;;;13.40;64.20;100747.84;5024753;28;20092;-71
2021/04/19 11:19:31;;;;;;;8.77;6.63;;;;;;;13.43;61.15;100749.34;5025107;28;20042;-71
2021/04/19 11:21:57;;;;;;;6.90;5.53;;;;;;;13.43;60.87;100744.84;5029696;28;20501;-71
2021/04/19 11:24:36;;;;;;;8.00;6.03;;;;;;;13.38;61.14;100741.88;5032989;28;20056;-71
2021/04/19 11:27:07;;;;;;;4.93;3.97;;;;;;;13.72;61.58;100741.69;5033074;28;20034;-71
2021/04/19 11:29:37;;;;;;;7.97;5.47;;;;;;;13.92;59.99;100749.31;5036347;28;20029;-71
2021/04/19 11:32:03;;;;;;;10.05;7.30;;;;;;;13.96;58.87;100740.84;5007255;28;20057;-71